createdAt,value
2017-08-22T00:00:04.496Z,0
2017-08-22T00:00:44.957Z,0
2017-08-22T00:01:25.416Z,0
2017-08-22T00:02:05.871Z,0
2017-08-22T00:02:46.356Z,0
2017-08-22T00:03:26.808Z,0
2017-08-22T00:04:07.392Z,0
2017-08-22T00:04:47.828Z,0
2017-08-22T00:05:28.289Z,0
2017-08-22T00:06:08.737Z,0
2017-08-22T00:06:49.194Z,0
2017-08-22T00:07:29.661Z,0
2017-08-22T00:09:28.162Z,0
2017-08-22T00:10:08.610Z,0
2017-08-22T00:10:49.066Z,0
2017-08-22T00:11:29.532Z,0
2017-08-22T00:12:09.990Z,0
2017-08-22T00:12:50.442Z,0
2017-08-22T00:13:30.890Z,0
2017-08-22T00:14:11.343Z,0
2017-08-22T00:14:51.806Z,0
2017-08-22T00:15:32.267Z,0
2017-08-22T00:16:12.709Z,0
2017-08-22T00:16:53.184Z,0
2017-08-22T00:17:33.634Z,0
2017-08-22T00:18:14.091Z,0
2017-08-22T00:18:54.546Z,0
2017-08-22T00:19:34.989Z,0
2017-08-22T00:20:15.460Z,0
2017-08-22T00:20:55.937Z,0
2017-08-22T00:21:36.375Z,0
2017-08-22T00:22:16.838Z,0
2017-08-22T00:22:57.301Z,0
2017-08-22T00:23:38.622Z,0
2017-08-22T00:24:18.789Z,0
2017-08-22T00:24:59.255Z,0
2017-08-22T00:25:39.703Z,0
2017-08-22T00:26:20.157Z,0
2017-08-22T00:27:00.616Z,0
2017-08-22T00:27:41.069Z,0
2017-08-22T00:28:21.524Z,0
2017-08-22T00:29:01.983Z,0
2017-08-22T00:29:42.434Z,0
2017-08-22T00:30:22.896Z,0
2017-08-22T00:31:03.358Z,0
2017-08-22T00:31:43.802Z,0
2017-08-22T00:32:24.258Z,0
2017-08-22T00:33:04.713Z,0
2017-08-22T00:33:45.179Z,0
2017-08-22T00:34:25.632Z,0
2017-08-22T00:35:06.085Z,0
2017-08-22T00:35:46.534Z,0
2017-08-22T00:36:26.988Z,0
2017-08-22T00:37:07.440Z,0
2017-08-22T00:37:47.897Z,0
2017-08-22T00:38:28.348Z,0
2017-08-22T00:39:08.811Z,0
2017-08-22T00:39:49.274Z,0
2017-08-22T00:40:29.716Z,0
2017-08-22T00:41:10.149Z,0
2017-08-22T00:41:50.603Z,0
2017-08-22T00:42:31.051Z,0
2017-08-22T00:43:11.513Z,0
2017-08-22T00:43:51.970Z,0
2017-08-22T00:44:32.429Z,0
2017-08-22T00:45:12.884Z,0
2017-08-22T00:45:53.344Z,0
2017-08-22T00:46:33.801Z,0
2017-08-22T00:47:14.259Z,0
2017-08-22T00:47:54.718Z,0
2017-08-22T00:48:35.176Z,0
2017-08-22T00:49:15.637Z,0
2017-08-22T00:49:56.100Z,0
2017-08-22T00:50:36.554Z,0
2017-08-22T00:51:17.009Z,0
2017-08-22T00:51:57.455Z,0
2017-08-22T00:52:37.920Z,0
2017-08-22T00:53:18.370Z,0
2017-08-22T00:53:58.825Z,0
2017-08-22T00:54:39.281Z,0
2017-08-22T00:55:19.740Z,0
2017-08-22T00:56:00.188Z,0
2017-08-22T00:56:40.647Z,0
2017-08-22T00:57:21.087Z,0
2017-08-22T00:58:01.539Z,0
2017-08-22T00:58:41.988Z,0
2017-08-22T00:59:22.442Z,0
2017-08-22T01:00:02.885Z,0
2017-08-22T01:00:43.334Z,0
2017-08-22T01:01:23.783Z,0
2017-08-22T01:02:04.246Z,0
2017-08-22T01:02:44.704Z,0
2017-08-22T01:03:25.159Z,0
2017-08-22T01:04:05.636Z,0
2017-08-22T01:04:46.084Z,0
2017-08-22T01:05:26.545Z,0
2017-08-22T01:06:07.021Z,0
2017-08-22T01:06:47.434Z,0
2017-08-22T01:07:27.891Z,0
2017-08-22T01:08:08.345Z,0
2017-08-22T01:08:48.802Z,0
2017-08-22T01:09:29.260Z,0
2017-08-22T01:10:09.709Z,0
2017-08-22T01:10:50.163Z,0
2017-08-22T01:11:30.614Z,0
2017-08-22T01:12:11.071Z,0
2017-08-22T01:12:51.535Z,0
2017-08-22T01:13:32.037Z,0
2017-08-22T01:14:12.485Z,0
2017-08-22T01:14:52.930Z,0
2017-08-22T01:15:33.382Z,0
2017-08-22T01:16:13.845Z,0
2017-08-22T01:16:54.298Z,0
2017-08-22T01:17:34.752Z,0
2017-08-22T01:18:15.203Z,0
2017-08-22T01:18:55.682Z,0
2017-08-22T01:19:36.127Z,0
2017-08-22T01:20:16.598Z,0
2017-08-22T01:20:57.029Z,0
2017-08-22T01:21:37.487Z,0
2017-08-22T01:22:17.946Z,0
2017-08-22T01:22:58.402Z,0
2017-08-22T01:23:38.855Z,0
2017-08-22T01:24:19.311Z,0
2017-08-22T01:24:59.768Z,0
2017-08-22T01:25:40.233Z,0
2017-08-22T01:26:20.695Z,0
2017-08-22T01:27:01.151Z,0
2017-08-22T01:27:41.605Z,0
2017-08-22T01:28:22.063Z,0
2017-08-22T01:29:02.519Z,0
2017-08-22T01:29:42.986Z,0
2017-08-22T01:30:23.432Z,0
2017-08-22T01:31:03.881Z,0
2017-08-22T01:31:44.345Z,0
2017-08-22T01:32:24.802Z,0
2017-08-22T01:33:05.257Z,0
2017-08-22T01:33:45.715Z,0
2017-08-22T01:34:26.160Z,0
2017-08-22T01:35:06.608Z,0
2017-08-22T01:35:47.126Z,0
2017-08-22T01:36:27.598Z,0
2017-08-22T01:37:08.053Z,0
2017-08-22T01:37:48.503Z,0
2017-08-22T01:38:28.955Z,0
2017-08-22T01:39:09.398Z,0
2017-08-22T01:39:49.847Z,0
2017-08-22T01:40:30.291Z,0
2017-08-22T01:41:10.745Z,0
2017-08-22T01:41:51.203Z,0
2017-08-22T01:42:31.652Z,0
2017-08-22T01:43:12.117Z,0
2017-08-22T01:43:52.585Z,0
2017-08-22T01:44:33.038Z,0
2017-08-22T01:45:13.498Z,0
2017-08-22T01:45:53.942Z,0
2017-08-22T01:46:34.394Z,0
2017-08-22T01:47:14.860Z,0
2017-08-22T01:47:55.290Z,0
2017-08-22T01:48:35.744Z,0
2017-08-22T01:49:16.186Z,0
2017-08-22T01:49:56.647Z,0
2017-08-22T01:50:37.086Z,0
2017-08-22T01:51:17.541Z,0
2017-08-22T01:51:57.986Z,0
2017-08-22T01:52:38.439Z,0
2017-08-22T01:53:18.888Z,0
2017-08-22T01:53:59.339Z,0
2017-08-22T01:54:39.790Z,0
2017-08-22T01:55:20.245Z,0
2017-08-22T01:56:00.692Z,0
2017-08-22T01:56:41.147Z,0
2017-08-22T01:57:21.599Z,0
2017-08-22T01:58:02.053Z,0
2017-08-22T01:58:42.498Z,0
2017-08-22T01:59:22.957Z,0
2017-08-22T02:00:03.412Z,0
2017-08-22T02:00:43.871Z,0
2017-08-22T02:01:24.318Z,0
2017-08-22T02:02:04.771Z,0
2017-08-22T02:02:45.222Z,0
2017-08-22T02:03:25.678Z,0
2017-08-22T02:04:06.138Z,0
2017-08-22T02:04:46.589Z,0
2017-08-22T02:05:27.042Z,0
2017-08-22T02:06:07.493Z,0
2017-08-22T02:06:47.942Z,0
2017-08-22T02:07:28.389Z,0
2017-08-22T02:08:08.837Z,0
2017-08-22T02:08:49.296Z,0
2017-08-22T02:09:29.758Z,0
2017-08-22T02:10:10.210Z,0
2017-08-22T02:10:50.660Z,0
2017-08-22T02:11:31.095Z,0
2017-08-22T02:12:11.529Z,0
2017-08-22T02:12:51.992Z,0
2017-08-22T02:13:32.449Z,0
2017-08-22T02:14:12.902Z,0
2017-08-22T02:14:53.367Z,0
2017-08-22T02:15:33.819Z,0
2017-08-22T02:16:14.271Z,0
2017-08-22T02:16:54.724Z,0
2017-08-22T02:17:35.180Z,0
2017-08-22T02:18:15.631Z,0
2017-08-22T02:18:56.092Z,0
2017-08-22T02:19:36.543Z,0
2017-08-22T02:22:09.632Z,0
2017-08-22T02:22:50.088Z,0
2017-08-22T02:23:30.544Z,0
2017-08-22T02:24:10.987Z,0
2017-08-22T02:24:51.433Z,0
2017-08-22T02:25:31.886Z,0
2017-08-22T02:26:12.332Z,0
2017-08-22T02:26:52.782Z,0
2017-08-22T02:27:33.238Z,0
2017-08-22T02:28:13.690Z,0
2017-08-22T02:28:54.149Z,0
2017-08-22T02:29:34.609Z,0
2017-08-22T02:30:15.063Z,0
2017-08-22T02:30:55.510Z,0
2017-08-22T02:31:35.993Z,0
2017-08-22T02:32:16.440Z,0
2017-08-22T02:32:56.890Z,0
2017-08-22T02:33:37.348Z,0
2017-08-22T02:34:17.797Z,0
2017-08-22T02:34:58.260Z,0
2017-08-22T02:35:38.701Z,0
2017-08-22T02:36:19.156Z,0
2017-08-22T02:36:59.601Z,0
2017-08-22T02:37:40.058Z,0
2017-08-22T02:38:20.510Z,0
2017-08-22T02:39:00.966Z,0
2017-08-22T02:39:41.460Z,0
2017-08-22T02:40:21.924Z,0
2017-08-22T02:41:02.398Z,0
2017-08-22T02:41:42.857Z,0
2017-08-22T02:42:23.313Z,0
2017-08-22T02:43:03.777Z,0
2017-08-22T02:43:44.230Z,0
2017-08-22T02:44:24.688Z,0
2017-08-22T02:45:05.144Z,0
2017-08-22T02:45:45.587Z,0
2017-08-22T02:46:26.052Z,0
2017-08-22T02:47:06.525Z,0
2017-08-22T02:47:46.976Z,0
2017-08-22T02:48:27.425Z,0
2017-08-22T02:49:07.878Z,0
2017-08-22T02:49:48.318Z,0
2017-08-22T02:50:28.769Z,0
2017-08-22T02:51:09.250Z,0
2017-08-22T02:51:49.700Z,0
2017-08-22T02:52:30.168Z,0
2017-08-22T02:53:10.625Z,0
2017-08-22T02:53:51.079Z,0
2017-08-22T02:54:31.533Z,0
2017-08-22T02:55:11.976Z,0
2017-08-22T02:55:52.430Z,0
2017-08-22T02:56:32.898Z,0
2017-08-22T02:57:13.339Z,0
2017-08-22T02:57:53.785Z,0
2017-08-22T02:58:34.241Z,0
2017-08-22T02:59:14.701Z,0
2017-08-22T02:59:55.154Z,0
2017-08-22T03:00:35.602Z,0
2017-08-22T03:01:16.055Z,0
2017-08-22T03:01:56.503Z,0
2017-08-22T03:02:36.952Z,0
2017-08-22T03:03:17.412Z,0
2017-08-22T03:03:57.865Z,0
2017-08-22T03:04:38.312Z,0
2017-08-22T03:05:18.776Z,0
2017-08-22T03:05:59.232Z,0
2017-08-22T03:06:39.692Z,0
2017-08-22T03:07:20.135Z,0
2017-08-22T03:08:00.593Z,0
2017-08-22T03:08:41.053Z,0
2017-08-22T03:09:21.519Z,0
2017-08-22T03:10:01.969Z,0
2017-08-22T03:10:42.436Z,0
2017-08-22T03:11:22.880Z,0
2017-08-22T03:12:03.338Z,0
2017-08-22T03:12:43.794Z,0
2017-08-22T03:13:24.250Z,0
2017-08-22T03:14:04.711Z,0
2017-08-22T03:14:45.168Z,0
2017-08-22T03:15:25.630Z,0
2017-08-22T03:16:06.084Z,0
2017-08-22T03:16:46.557Z,0
2017-08-22T03:17:27.031Z,0
2017-08-22T03:18:07.464Z,0
2017-08-22T03:18:47.921Z,0
2017-08-22T03:19:28.375Z,0
2017-08-22T03:20:08.826Z,0
2017-08-22T03:20:49.283Z,0
2017-08-22T03:21:29.725Z,0
2017-08-22T03:22:10.174Z,0
2017-08-22T03:22:50.630Z,0
2017-08-22T03:23:31.085Z,0
2017-08-22T03:24:11.538Z,0
2017-08-22T03:24:52.011Z,0
2017-08-22T03:25:32.462Z,0
2017-08-22T03:26:12.921Z,0
2017-08-22T03:26:53.371Z,0
2017-08-22T03:27:33.830Z,0
2017-08-22T03:28:14.272Z,0
2017-08-22T03:28:54.718Z,0
2017-08-22T03:29:35.170Z,0
2017-08-22T03:30:15.619Z,0
2017-08-22T03:30:56.092Z,0
2017-08-22T03:31:36.510Z,0
2017-08-22T03:32:16.960Z,0
2017-08-22T03:32:57.407Z,0
2017-08-22T03:33:37.874Z,0
2017-08-22T03:34:18.321Z,0
2017-08-22T03:34:58.777Z,0
2017-08-22T03:35:39.245Z,0
2017-08-22T03:36:19.684Z,0
2017-08-22T03:37:00.144Z,0
2017-08-22T03:37:40.605Z,0
2017-08-22T03:38:21.069Z,0
2017-08-22T03:39:01.491Z,0
2017-08-22T03:39:41.950Z,0
2017-08-22T03:40:22.414Z,0
2017-08-22T03:42:55.484Z,0
2017-08-22T03:43:35.941Z,0
2017-08-22T03:44:16.396Z,0
2017-08-22T03:44:56.845Z,0
2017-08-22T03:45:37.302Z,0
2017-08-22T03:46:17.759Z,0
2017-08-22T03:46:58.200Z,0
2017-08-22T03:47:38.654Z,0
2017-08-22T03:48:19.111Z,0
2017-08-22T03:48:59.561Z,4
2017-08-22T03:49:40.014Z,4
2017-08-22T03:50:20.473Z,4
2017-08-22T03:51:00.921Z,0
2017-08-22T03:51:41.369Z,0
2017-08-22T03:52:21.816Z,0
2017-08-22T03:53:02.265Z,0
2017-08-22T03:53:42.736Z,0
2017-08-22T03:54:23.203Z,0
2017-08-22T03:56:41.070Z,0
2017-08-22T03:57:21.536Z,0
2017-08-22T03:58:01.972Z,0
2017-08-22T03:58:42.426Z,0
2017-08-22T03:59:22.882Z,0
2017-08-22T04:00:03.334Z,0
2017-08-22T04:00:43.832Z,0
2017-08-22T04:01:24.294Z,0
2017-08-22T04:02:04.763Z,0
2017-08-22T04:02:45.225Z,0
2017-08-22T04:03:25.679Z,0
2017-08-22T04:04:06.122Z,0
2017-08-22T04:04:46.567Z,0
2017-08-22T04:05:27.040Z,0
2017-08-22T04:06:07.442Z,0
2017-08-22T04:06:47.857Z,0
2017-08-22T04:07:28.257Z,0
2017-08-22T04:08:08.678Z,0
2017-08-22T04:08:49.143Z,0
2017-08-22T04:09:29.591Z,0
2017-08-22T04:10:10.049Z,4
2017-08-22T04:10:50.502Z,4
2017-08-22T04:11:30.966Z,4
2017-08-22T04:12:11.394Z,4
2017-08-22T04:12:51.834Z,4
2017-08-22T04:13:32.290Z,0
2017-08-22T04:14:12.736Z,0
2017-08-22T04:14:53.138Z,4
2017-08-22T04:15:33.525Z,4
2017-08-22T04:16:13.963Z,4
2017-08-22T04:16:54.377Z,4
2017-08-22T04:17:34.818Z,4
2017-08-22T04:19:52.689Z,8
2017-08-22T04:20:33.150Z,8
2017-08-22T04:21:13.611Z,8
2017-08-22T04:21:54.066Z,4
2017-08-22T04:22:34.519Z,4
2017-08-22T04:23:14.969Z,8
2017-08-22T04:23:55.425Z,8
2017-08-22T04:24:35.890Z,8
2017-08-22T04:25:16.342Z,8
2017-08-22T04:25:56.804Z,12
2017-08-22T04:26:37.257Z,12
2017-08-22T04:27:17.729Z,8
2017-08-22T04:27:58.198Z,8
2017-08-22T04:28:38.650Z,12
2017-08-22T04:29:19.109Z,12
2017-08-22T04:29:59.572Z,16
2017-08-22T04:30:40.027Z,12
2017-08-22T04:31:20.477Z,16
2017-08-22T04:32:00.927Z,12
2017-08-22T04:32:41.372Z,16
2017-08-22T04:33:21.824Z,20
2017-08-22T04:35:34.625Z,20
2017-08-22T04:36:15.063Z,20
2017-08-22T04:36:55.511Z,24
2017-08-22T04:37:35.988Z,24
2017-08-22T04:38:16.456Z,24
2017-08-22T04:38:56.914Z,28
2017-08-22T04:39:37.370Z,24
2017-08-22T04:40:17.829Z,28
2017-08-22T04:40:58.287Z,28
2017-08-22T04:41:38.749Z,32
2017-08-22T04:42:19.211Z,32
2017-08-22T04:42:59.682Z,32
2017-08-22T04:43:40.112Z,36
2017-08-22T04:44:20.563Z,32
2017-08-22T04:45:01.019Z,36
2017-08-22T04:45:41.476Z,36
2017-08-22T04:46:21.926Z,40
2017-08-22T04:47:02.451Z,40
2017-08-22T04:47:42.924Z,40
2017-08-22T04:48:23.381Z,40
2017-08-22T04:49:03.859Z,44
2017-08-22T04:49:44.294Z,44
2017-08-22T04:50:24.749Z,48
2017-08-22T04:51:05.190Z,48
2017-08-22T04:51:45.644Z,52
2017-08-22T04:52:26.102Z,52
2017-08-22T04:53:06.558Z,52
2017-08-22T04:53:47.013Z,56
2017-08-22T04:54:27.464Z,56
2017-08-22T04:55:07.908Z,56
2017-08-22T04:55:48.383Z,64
2017-08-22T04:56:28.829Z,64
2017-08-22T04:57:09.286Z,64
2017-08-22T04:57:49.752Z,68
2017-08-22T04:58:30.206Z,68
2017-08-22T04:59:10.659Z,72
2017-08-22T04:59:51.107Z,72
2017-08-22T05:00:31.560Z,76
2017-08-22T05:01:12.017Z,80
2017-08-22T05:01:52.474Z,80
2017-08-22T05:02:32.930Z,80
2017-08-22T05:03:13.385Z,84
2017-08-22T05:03:53.842Z,84
2017-08-22T05:04:34.275Z,92
2017-08-22T05:05:14.726Z,92
2017-08-22T05:05:55.178Z,92
2017-08-22T05:06:35.659Z,96
2017-08-22T05:07:16.108Z,96
2017-08-22T05:07:56.566Z,100
2017-08-22T05:08:37.014Z,104
2017-08-22T05:09:17.485Z,104
2017-08-22T05:09:57.928Z,108
2017-08-22T05:10:38.531Z,108
2017-08-22T05:11:18.966Z,112
2017-08-22T05:11:59.408Z,116
2017-08-22T05:12:39.866Z,116
2017-08-22T05:13:20.310Z,120
2017-08-22T05:14:00.764Z,120
2017-08-22T05:14:41.229Z,124
2017-08-22T05:15:21.674Z,128
2017-08-22T05:16:02.121Z,132
2017-08-22T05:16:42.598Z,132
2017-08-22T05:17:23.025Z,136
2017-08-22T05:18:03.486Z,140
2017-08-22T05:18:43.945Z,144
2017-08-22T05:19:24.401Z,144
2017-08-22T05:20:04.855Z,148
2017-08-22T05:20:45.301Z,152
2017-08-22T05:21:25.751Z,156
2017-08-22T05:22:06.213Z,156
2017-08-22T05:22:46.666Z,160
2017-08-22T05:23:27.221Z,164
2017-08-22T05:24:07.605Z,172
2017-08-22T05:24:48.070Z,172
2017-08-22T05:25:28.518Z,176
2017-08-22T05:26:08.968Z,180
2017-08-22T05:26:49.421Z,184
2017-08-22T05:27:29.876Z,188
2017-08-22T05:28:10.364Z,188
2017-08-22T05:28:50.789Z,196
2017-08-22T05:29:31.237Z,196
2017-08-22T05:30:11.697Z,200
2017-08-22T05:30:52.146Z,204
2017-08-22T05:31:32.618Z,212
2017-08-22T05:32:13.062Z,216
2017-08-22T05:32:53.516Z,220
2017-08-22T05:33:33.971Z,224
2017-08-22T05:34:14.422Z,232
2017-08-22T05:34:54.874Z,240
2017-08-22T05:35:35.332Z,244
2017-08-22T05:36:15.794Z,248
2017-08-22T05:36:56.243Z,256
2017-08-22T05:37:36.710Z,264
2017-08-22T05:38:17.153Z,272
2017-08-22T05:38:57.607Z,276
2017-08-22T05:39:38.054Z,280
2017-08-22T05:40:18.510Z,292
2017-08-22T05:40:58.963Z,300
2017-08-22T05:41:39.422Z,308
2017-08-22T05:42:19.876Z,316
2017-08-22T05:43:00.333Z,328
2017-08-22T05:43:40.801Z,332
2017-08-22T05:44:21.258Z,340
2017-08-22T05:45:01.726Z,348
2017-08-22T05:45:42.200Z,356
2017-08-22T05:46:22.653Z,360
2017-08-22T05:47:03.117Z,368
2017-08-22T05:47:43.563Z,376
2017-08-22T05:48:24.016Z,384
2017-08-22T05:49:04.492Z,388
2017-08-22T05:49:44.978Z,396
2017-08-22T05:50:25.440Z,404
2017-08-22T05:51:05.890Z,408
2017-08-22T05:51:46.367Z,416
2017-08-22T05:52:26.825Z,424
2017-08-22T05:53:07.279Z,428
2017-08-22T05:53:47.734Z,436
2017-08-22T05:54:28.192Z,444
2017-08-22T05:55:08.643Z,452
2017-08-22T05:55:49.108Z,460
2017-08-22T05:56:29.564Z,464
2017-08-22T05:57:10.046Z,468
2017-08-22T05:57:50.496Z,476
2017-08-22T05:58:30.951Z,480
2017-08-22T05:59:11.407Z,488
2017-08-22T05:59:51.872Z,492
2017-08-22T06:00:32.305Z,496
2017-08-22T06:01:12.764Z,504
2017-08-22T06:01:53.223Z,512
2017-08-22T06:02:33.677Z,524
2017-08-22T06:03:14.147Z,536
2017-08-22T06:03:54.598Z,544
2017-08-22T06:04:35.048Z,552
2017-08-22T06:05:15.498Z,560
2017-08-22T06:05:55.947Z,572
2017-08-22T06:06:36.426Z,576
2017-08-22T06:07:16.888Z,580
2017-08-22T06:07:57.347Z,588
2017-08-22T06:08:37.802Z,600
2017-08-22T06:09:18.252Z,608
2017-08-22T06:09:58.713Z,616
2017-08-22T06:10:39.173Z,624
2017-08-22T06:11:19.633Z,636
2017-08-22T06:12:00.087Z,640
2017-08-22T06:12:40.539Z,644
2017-08-22T06:13:20.997Z,652
2017-08-22T06:14:01.455Z,660
2017-08-22T06:14:41.898Z,668
2017-08-22T06:15:22.360Z,680
2017-08-22T06:16:02.819Z,688
2017-08-22T06:16:43.273Z,692
2017-08-22T06:17:23.725Z,700
2017-08-22T06:18:04.175Z,708
2017-08-22T06:18:44.641Z,712
2017-08-22T06:19:25.108Z,724
2017-08-22T06:20:05.552Z,732
2017-08-22T06:20:46.002Z,744
2017-08-22T06:21:26.459Z,752
2017-08-22T06:22:06.919Z,760
2017-08-22T06:22:47.394Z,768
2017-08-22T06:23:27.858Z,768
2017-08-22T06:24:08.309Z,780
2017-08-22T06:24:48.762Z,784
2017-08-22T06:25:29.218Z,788
2017-08-22T06:26:09.669Z,796
2017-08-22T06:26:50.122Z,808
2017-08-22T06:27:30.589Z,816
2017-08-22T06:28:11.055Z,820
2017-08-22T06:28:51.515Z,832
2017-08-22T06:29:31.981Z,840
2017-08-22T06:30:12.432Z,848
2017-08-22T06:30:52.896Z,856
2017-08-22T06:31:33.357Z,868
2017-08-22T06:32:13.804Z,872
2017-08-22T06:32:54.253Z,884
2017-08-22T06:33:34.702Z,896
2017-08-22T06:34:15.183Z,904
2017-08-22T06:34:55.628Z,912
2017-08-22T06:35:36.078Z,920
2017-08-22T06:38:09.089Z,956
2017-08-22T06:38:49.535Z,964
2017-08-22T06:39:29.989Z,976
2017-08-22T06:40:10.426Z,988
2017-08-22T06:40:50.878Z,1000
2017-08-22T06:41:31.325Z,1008
2017-08-22T06:42:11.782Z,1016
2017-08-22T06:42:52.234Z,1028
2017-08-22T06:43:32.685Z,1032
2017-08-22T06:44:13.137Z,1044
2017-08-22T06:44:53.593Z,1056
2017-08-22T06:45:34.059Z,1068
2017-08-22T06:46:14.514Z,1076
2017-08-22T06:46:54.974Z,1088
2017-08-22T06:47:35.438Z,1096
2017-08-22T06:48:15.876Z,1104
2017-08-22T06:48:56.332Z,1112
2017-08-22T06:49:36.772Z,1120
2017-08-22T06:50:17.212Z,1128
2017-08-22T06:50:57.667Z,1140
2017-08-22T06:51:38.117Z,1156
2017-08-22T06:52:18.570Z,1172
2017-08-22T06:54:51.612Z,1224
2017-08-22T06:55:32.068Z,1240
2017-08-22T06:56:12.519Z,1252
2017-08-22T06:56:52.973Z,1264
2017-08-22T06:57:33.429Z,1276
2017-08-22T06:58:13.879Z,1296
2017-08-22T06:58:54.320Z,1308
2017-08-22T06:59:34.775Z,1324
2017-08-22T07:00:15.228Z,1336
2017-08-22T07:00:55.671Z,1352
2017-08-22T07:01:36.124Z,1372
2017-08-22T07:02:16.579Z,1388
2017-08-22T07:02:57.022Z,1400
2017-08-22T07:03:37.469Z,1416
2017-08-22T07:04:17.924Z,1432
2017-08-22T07:04:58.410Z,1444
2017-08-22T07:07:31.412Z,1512
2017-08-22T07:08:11.871Z,1520
2017-08-22T07:08:52.323Z,1532
2017-08-22T07:09:32.781Z,1536
2017-08-22T07:10:13.263Z,1544
2017-08-22T07:10:53.723Z,1556
2017-08-22T07:11:34.167Z,1564
2017-08-22T07:12:14.620Z,1580
2017-08-22T07:12:55.073Z,1588
2017-08-22T07:13:35.522Z,1612
2017-08-22T07:14:15.954Z,1624
2017-08-22T07:14:56.433Z,1648
2017-08-22T07:15:36.858Z,1664
2017-08-22T07:16:17.308Z,1680
2017-08-22T07:16:57.756Z,1696
2017-08-22T07:17:38.212Z,1708
2017-08-22T07:18:18.663Z,1716
2017-08-22T07:18:59.100Z,1728
2017-08-22T07:19:39.599Z,1736
2017-08-22T07:20:20.046Z,1744
2017-08-22T07:21:00.505Z,1756
2017-08-22T07:21:41.036Z,1768
2017-08-22T07:22:21.433Z,1784
2017-08-22T07:23:01.874Z,1800
2017-08-22T07:23:42.352Z,1820
2017-08-22T07:24:22.819Z,1844
2017-08-22T07:25:03.284Z,1872
2017-08-22T07:25:43.743Z,1896
2017-08-22T07:26:24.193Z,1920
2017-08-22T07:27:04.643Z,1856
2017-08-22T07:27:45.112Z,1856
2017-08-22T07:28:25.557Z,2004
2017-08-22T07:29:06.013Z,1792
2017-08-22T07:29:46.472Z,1584
2017-08-22T07:30:26.924Z,1716
2017-08-22T07:31:07.366Z,1700
2017-08-22T07:31:47.822Z,1736
2017-08-22T07:32:28.271Z,2068
2017-08-22T07:33:08.728Z,2056
2017-08-22T07:33:49.156Z,2036
2017-08-22T07:34:29.614Z,2068
2017-08-22T07:35:10.045Z,2024
2017-08-22T07:35:50.494Z,2096
2017-08-22T07:36:30.960Z,2108
2017-08-22T07:37:11.395Z,2108
2017-08-22T07:37:51.848Z,2156
2017-08-22T07:38:32.287Z,2008
2017-08-22T07:39:12.738Z,1796
2017-08-22T07:39:53.201Z,1972
2017-08-22T07:40:33.650Z,2132
2017-08-22T07:41:14.110Z,1832
2017-08-22T07:41:54.566Z,2256
2017-08-22T07:42:34.998Z,2268
2017-08-22T07:43:15.467Z,2284
2017-08-22T07:43:55.928Z,2284
2017-08-22T07:44:36.381Z,2364
2017-08-22T07:45:16.827Z,2076
2017-08-22T07:45:57.290Z,1952
2017-08-22T07:46:37.746Z,2428
2017-08-22T07:47:18.218Z,2444
2017-08-22T07:47:58.669Z,2064
2017-08-22T07:48:39.127Z,2196
2017-08-22T07:49:19.574Z,2312
2017-08-22T07:50:00.028Z,2448
2017-08-22T07:50:40.488Z,2464
2017-08-22T07:51:20.953Z,2456
2017-08-22T07:52:01.408Z,2464
2017-08-22T07:52:41.860Z,2476
2017-08-22T07:53:22.318Z,2480
2017-08-22T07:54:02.848Z,2500
2017-08-22T07:54:43.296Z,2508
2017-08-22T07:55:23.754Z,2524
2017-08-22T07:56:04.194Z,2532
2017-08-22T07:56:44.632Z,2544
2017-08-22T07:57:25.089Z,2552
2017-08-22T07:58:05.515Z,2560
2017-08-22T07:58:46.005Z,2572
2017-08-22T07:59:26.434Z,2580
2017-08-22T08:00:06.914Z,2596
2017-08-22T08:00:47.355Z,2608
2017-08-22T08:01:27.802Z,2632
2017-08-22T08:02:08.491Z,2648
2017-08-22T08:02:48.942Z,2664
2017-08-22T08:03:29.428Z,2680
2017-08-22T08:04:09.881Z,2712
2017-08-22T08:04:50.402Z,2728
2017-08-22T08:05:30.976Z,2748
2017-08-22T08:06:11.626Z,2760
2017-08-22T08:06:51.961Z,2772
2017-08-22T08:07:32.526Z,2780
2017-08-22T08:08:12.888Z,2792
2017-08-22T08:08:53.420Z,2800
2017-08-22T08:09:33.837Z,2808
2017-08-22T08:10:14.288Z,2824
2017-08-22T08:10:54.736Z,2824
2017-08-22T08:11:35.199Z,2828
2017-08-22T08:12:15.794Z,2844
2017-08-22T08:12:56.260Z,2848
2017-08-22T08:13:36.709Z,2848
2017-08-22T08:14:17.179Z,2876
2017-08-22T08:14:57.622Z,2888
2017-08-22T08:15:38.074Z,2896
2017-08-22T08:16:18.519Z,2916
2017-08-22T08:16:58.974Z,2932
2017-08-22T08:17:39.417Z,2932
2017-08-22T08:18:19.868Z,2932
2017-08-22T08:19:00.325Z,2932
2017-08-22T08:19:40.794Z,2940
2017-08-22T08:20:21.218Z,2952
2017-08-22T08:21:01.674Z,2984
2017-08-22T08:21:42.125Z,2996
2017-08-22T08:22:22.573Z,3008
2017-08-22T08:23:03.028Z,3024
2017-08-22T08:23:43.484Z,3044
2017-08-22T08:24:23.935Z,3044
2017-08-22T08:25:04.394Z,3056
2017-08-22T08:25:44.854Z,3064
2017-08-22T08:26:25.312Z,3068
2017-08-22T08:27:05.768Z,3076
2017-08-22T08:27:46.244Z,3068
2017-08-22T08:28:26.676Z,3076
2017-08-22T08:29:07.118Z,3080
2017-08-22T08:29:47.563Z,3084
2017-08-22T08:30:28.007Z,3100
2017-08-22T08:31:08.441Z,3116
2017-08-22T08:31:48.894Z,3108
2017-08-22T08:32:29.341Z,3116
2017-08-22T08:33:09.799Z,3116
2017-08-22T08:33:50.266Z,3132
2017-08-22T08:34:30.712Z,3144
2017-08-22T08:35:11.163Z,3156
2017-08-22T08:35:51.623Z,3176
2017-08-22T08:36:32.069Z,3184
2017-08-22T08:37:12.523Z,3188
2017-08-22T08:37:52.986Z,3188
2017-08-22T08:38:33.429Z,3200
2017-08-22T08:39:13.878Z,3212
2017-08-22T08:39:54.331Z,3224
2017-08-22T08:40:34.783Z,3248
2017-08-22T08:41:15.216Z,3280
2017-08-22T08:41:55.675Z,3296
2017-08-22T08:42:36.127Z,3300
2017-08-22T08:43:16.653Z,3308
2017-08-22T08:43:57.096Z,3324
2017-08-22T08:44:37.556Z,3328
2017-08-22T08:45:18.012Z,3332
2017-08-22T08:45:58.470Z,3352
2017-08-22T08:46:38.925Z,3360
2017-08-22T08:47:19.385Z,3372
2017-08-22T08:47:59.843Z,3400
2017-08-22T08:48:40.480Z,3416
2017-08-22T08:49:20.944Z,3428
2017-08-22T08:50:01.394Z,3440
2017-08-22T08:50:41.852Z,3460
2017-08-22T08:51:22.309Z,3472
2017-08-22T08:52:02.787Z,3500
2017-08-22T08:52:43.247Z,3504
2017-08-22T08:53:23.703Z,3516
2017-08-22T08:54:04.155Z,3532
2017-08-22T08:54:44.623Z,3544
2017-08-22T08:55:25.073Z,3548
2017-08-22T08:56:05.528Z,3548
2017-08-22T08:56:45.984Z,3552
2017-08-22T08:57:26.434Z,3552
2017-08-22T08:58:06.898Z,3552
2017-08-22T08:58:47.360Z,3556
2017-08-22T08:59:27.811Z,3572
2017-08-22T09:00:08.280Z,3584
2017-08-22T09:00:48.727Z,3600
2017-08-22T09:01:29.183Z,3608
2017-08-22T09:02:09.633Z,3612
2017-08-22T09:02:50.083Z,3596
2017-08-22T09:03:30.548Z,3616
2017-08-22T09:04:10.999Z,3624
2017-08-22T09:04:51.448Z,3640
2017-08-22T09:05:31.902Z,3648
2017-08-22T09:06:12.357Z,3656
2017-08-22T09:06:52.805Z,3672
2017-08-22T09:07:33.261Z,3680
2017-08-22T09:08:13.711Z,3692
2017-08-22T09:08:54.172Z,3704
2017-08-22T09:09:34.630Z,3720
2017-08-22T09:10:15.079Z,3724
2017-08-22T09:10:55.543Z,3720
2017-08-22T09:11:35.994Z,3728
2017-08-22T09:12:16.455Z,3744
2017-08-22T09:12:56.914Z,3744
2017-08-22T09:13:37.364Z,3752
2017-08-22T09:14:17.800Z,3748
2017-08-22T09:14:58.276Z,3748
2017-08-22T09:15:38.720Z,3752
2017-08-22T09:16:19.183Z,3760
2017-08-22T09:16:59.651Z,3696
2017-08-22T09:17:40.100Z,3500
2017-08-22T09:18:20.569Z,3640
2017-08-22T09:19:01.011Z,3760
2017-08-22T09:19:41.466Z,3760
2017-08-22T09:20:21.922Z,3760
2017-08-22T09:21:02.366Z,3760
2017-08-22T09:21:42.817Z,3760
2017-08-22T09:22:23.275Z,3752
2017-08-22T09:23:03.724Z,3772
2017-08-22T09:23:44.192Z,3788
2017-08-22T09:24:24.637Z,3788
2017-08-22T09:25:05.091Z,3804
2017-08-22T09:25:45.552Z,3800
2017-08-22T09:26:26.016Z,3804
2017-08-22T09:27:06.448Z,3808
2017-08-22T09:27:46.912Z,3824
2017-08-22T09:28:27.438Z,3824
2017-08-22T09:29:07.804Z,3820
2017-08-22T09:29:48.259Z,3820
2017-08-22T09:30:28.706Z,3820
2017-08-22T09:31:09.175Z,3852
2017-08-22T09:31:49.625Z,3852
2017-08-22T09:32:30.073Z,3864
2017-08-22T09:33:10.522Z,3872
2017-08-22T09:33:50.984Z,3880
2017-08-22T09:34:31.441Z,3892
2017-08-22T09:35:11.903Z,3892
2017-08-22T09:35:52.364Z,3888
2017-08-22T09:36:32.813Z,3880
2017-08-22T09:37:13.266Z,3884
2017-08-22T09:37:53.720Z,3896
2017-08-22T09:38:34.173Z,3808
2017-08-22T09:39:14.628Z,3888
2017-08-22T09:39:55.079Z,3788
2017-08-22T09:40:35.534Z,3764
2017-08-22T09:41:15.991Z,3856
2017-08-22T09:41:56.448Z,3892
2017-08-22T09:42:36.907Z,3908
2017-08-22T09:43:17.369Z,3784
2017-08-22T09:43:57.820Z,3924
2017-08-22T09:44:38.276Z,3932
2017-08-22T09:45:18.728Z,3932